createdAt,value
2023-04-25T14:41:26.047Z,98611.91
2023-04-25T14:43:54.133Z,98614.72
2023-04-25T14:46:21.898Z,98603.56
2023-04-25T14:48:48.718Z,98600.06
2023-04-25T14:51:15.379Z,98592.22
2023-04-25T14:53:42.305Z,98596.19
2023-04-25T14:56:09.944Z,98602.94
2023-04-25T14:58:36.610Z,98600.88
2023-04-25T15:01:03.379Z,98600.38
2023-04-25T15:03:30.396Z,98602.09
2023-04-25T15:05:57.137Z,98611.31
2023-04-25T15:08:23.779Z,98612.78
2023-04-25T15:10:50.686Z,98606.84
2023-04-25T15:13:20.221Z,98611.59
2023-04-25T15:15:52.224Z,98611.31
2023-04-25T15:18:23.182Z,98612.00
2023-04-25T15:20:51.019Z,98612.53
2023-04-25T15:23:18.980Z,98628.03
2023-04-25T15:25:46.379Z,98625.38
2023-04-25T15:28:16.093Z,98629.59
2023-04-25T15:30:44.457Z,98631.72
2023-04-25T15:33:11.329Z,98637.03
2023-04-25T15:35:38.374Z,98631.31
2023-04-25T15:38:05.396Z,98634.78
2023-04-25T15:40:32.310Z,98636.84
2023-04-25T15:42:59.784Z,98646.03
2023-04-25T15:45:27.061Z,98636.94
2023-04-25T15:47:55.893Z,98639.25
2023-04-25T15:50:23.424Z,98642.84
2023-04-25T15:52:50.744Z,98636.31
2023-04-25T15:55:21.786Z,98635.88
2023-04-25T15:57:50.088Z,98637.31
2023-04-25T16:00:17.880Z,98637.69
2023-04-25T16:02:46.385Z,98640.72
2023-04-25T16:05:14.625Z,98631.13
2023-04-25T16:07:42.948Z,98638.16
2023-04-25T16:10:11.350Z,98639.66
2023-04-25T16:12:39.602Z,98633.88
2023-04-25T16:15:06.872Z,98632.28
2023-04-25T16:17:33.859Z,98642.00
2023-04-25T16:20:03.131Z,98646.69
2023-04-25T16:22:29.809Z,98631.19
2023-04-25T16:24:56.373Z,98646.22
2023-04-25T16:27:23.037Z,98638.72
2023-04-25T16:29:51.406Z,98641.41
2023-04-25T16:32:18.131Z,98639.25
2023-04-25T16:34:45.273Z,98644.06
2023-04-25T16:37:11.882Z,98645.41
2023-04-25T16:39:38.558Z,98643.44
2023-04-25T16:42:06.007Z,98644.25
2023-04-25T16:44:32.646Z,98639.56
2023-04-25T16:46:59.650Z,98642.84
2023-04-25T16:49:26.579Z,98642.09
2023-04-25T16:51:53.293Z,98639.22
2023-04-25T16:54:19.924Z,98647.22
2023-04-25T16:56:46.628Z,98643.44
2023-04-25T16:59:13.240Z,98636.47
2023-04-25T17:01:39.897Z,98652.41
2023-04-25T17:04:06.738Z,98645.44
2023-04-25T17:06:33.619Z,98653.91
2023-04-25T17:09:00.631Z,98655.81
2023-04-25T17:11:27.428Z,98649.28
2023-04-25T17:13:54.126Z,98652.41
2023-04-25T17:16:23.230Z,98656.66
2023-04-25T17:18:51.516Z,98651.97
2023-04-25T17:21:18.516Z,98651.47
2023-04-25T17:23:47.977Z,98660.13
2023-04-25T17:26:14.771Z,98669.47
2023-04-25T17:28:42.297Z,98668.06
2023-04-25T17:31:09.930Z,98675.53
2023-04-25T17:33:36.641Z,98673.94
2023-04-25T17:36:04.279Z,98669.03
2023-04-25T17:38:31.690Z,98681.75
2023-04-25T17:40:58.897Z,98681.53
2023-04-25T17:43:27.718Z,98689.22
2023-04-25T17:45:54.745Z,98696.19
2023-04-25T17:48:24.428Z,98683.56
2023-04-25T17:50:51.561Z,98695.22
2023-04-25T17:53:18.208Z,98691.00
2023-04-25T17:55:44.946Z,98694.97
2023-04-25T17:58:11.762Z,98698.94
2023-04-25T18:00:39.270Z,98708.44
2023-04-25T18:03:07.224Z,98704.47
2023-04-25T18:05:33.966Z,98707.22
2023-04-25T18:08:00.917Z,98705.06
2023-04-25T18:10:27.778Z,98718.50
2023-04-25T18:12:54.517Z,98722.56
2023-04-25T18:15:22.156Z,98720.16
2023-04-25T18:17:48.938Z,98725.69
2023-04-25T18:20:17.004Z,98734.06
2023-04-25T18:22:45.352Z,98735.25
2023-04-25T18:25:13.484Z,98738.59
2023-04-25T18:27:41.180Z,98739.06
2023-04-25T18:30:10.681Z,98750.53
2023-04-25T18:32:37.872Z,98748.56
2023-04-25T18:35:05.264Z,98750.44
2023-04-25T18:37:31.881Z,98762.16
2023-04-25T18:39:58.772Z,98762.63
2023-04-25T18:42:25.609Z,98767.41
2023-04-25T18:44:52.495Z,98772.94
2023-04-25T18:47:19.148Z,98780.31
2023-04-25T18:49:45.963Z,98775.94
2023-04-25T18:52:15.278Z,98789.00
2023-04-25T18:54:42.714Z,98789.97
2023-04-25T18:57:09.610Z,98796.41
2023-04-25T18:59:36.438Z,98803.78
2023-04-25T19:02:05.293Z,98809.03
2023-04-25T19:04:32.685Z,98803.78
2023-04-25T19:06:59.814Z,98808.44
2023-04-25T19:09:26.505Z,98812.84
2023-04-25T19:11:53.234Z,98823.38
2023-04-25T19:14:19.826Z,98820.00
2023-04-25T19:16:46.694Z,98820.25
2023-04-25T19:19:13.526Z,98829.84
2023-04-25T19:21:41.685Z,98820.44
2023-04-25T19:24:08.722Z,98830.25
2023-04-25T19:26:35.596Z,98825.19
2023-04-25T19:29:08.054Z,98833.19
2023-04-25T19:31:39.127Z,98827.97
2023-04-25T19:34:07.066Z,98841.00
2023-04-25T19:36:34.090Z,98838.28
2023-04-25T19:39:04.534Z,98835.72
2023-04-25T19:41:33.528Z,98845.13
2023-04-25T19:44:04.641Z,98840.06
2023-04-25T19:46:34.330Z,98841.00
2023-04-25T19:49:01.647Z,98841.75
2023-04-25T19:51:29.129Z,98843.53
2023-04-25T19:53:56.106Z,98847.84
2023-04-25T19:56:24.505Z,98848.59
2023-04-25T19:58:51.699Z,98841.84
2023-04-25T20:01:18.978Z,98855.00
2023-04-25T20:03:48.333Z,98852.38
2023-04-25T20:06:15.064Z,98853.31
2023-04-25T20:08:41.688Z,98858.38
2023-04-25T20:11:09.247Z,98858.59
2023-04-25T20:13:36.033Z,98863.84
2023-04-25T20:16:02.939Z,98869.13
2023-04-25T20:18:29.730Z,98865.78
2023-04-25T20:20:56.678Z,98864.69
2023-04-25T20:23:23.389Z,98852.69
2023-04-25T20:25:50.576Z,98859.00
2023-04-25T20:28:17.518Z,98860.91
2023-04-25T20:30:44.840Z,98869.00
2023-04-25T20:33:11.566Z,98875.44
2023-04-25T20:35:38.245Z,98877.97
2023-04-25T20:38:04.981Z,98870.81
2023-04-25T20:40:31.849Z,98882.19
2023-04-25T20:42:58.554Z,98885.53
2023-04-25T20:45:29.937Z,98888.81
2023-04-25T20:47:56.846Z,98885.13
2023-04-25T20:50:23.846Z,98893.63
2023-04-25T20:52:51.168Z,98894.13
2023-04-25T20:55:18.117Z,98893.91
2023-04-25T20:57:44.806Z,98890.16
2023-04-25T21:00:18.590Z,98892.22
2023-04-25T21:02:46.844Z,98896.03
2023-04-25T21:05:13.954Z,98890.09
2023-04-25T21:07:40.725Z,98891.69
2023-04-25T21:10:07.754Z,98897.78
2023-04-25T21:12:35.603Z,98897.56
2023-04-25T21:15:02.478Z,98905.84
2023-04-25T21:17:29.240Z,98904.19
2023-04-25T21:19:56.343Z,98903.44
2023-04-25T21:22:23.276Z,98905.63
2023-04-25T21:24:50.800Z,98908.56
2023-04-25T21:27:20.586Z,98914.22
2023-04-25T21:29:47.260Z,98918.19
2023-04-25T21:32:16.914Z,98919.22
2023-04-25T21:34:43.709Z,98923.00
2023-04-25T21:37:10.898Z,98914.34
2023-04-25T21:39:37.519Z,98921.31
2023-04-25T21:42:09.007Z,98923.50
2023-04-25T21:44:36.309Z,98919.16
2023-04-25T21:47:04.717Z,98917.88
2023-04-25T21:49:32.915Z,98926.91
2023-04-25T21:52:00.164Z,98926.72
2023-04-25T21:54:27.203Z,98923.97
2023-04-25T21:56:54.112Z,98923.97
2023-04-25T21:59:23.661Z,98918.63
2023-04-25T22:01:50.474Z,98923.13
2023-04-25T22:04:17.347Z,98924.81
2023-04-25T22:06:44.340Z,98921.25
2023-04-25T22:09:10.990Z,98924.09
2023-04-25T22:11:38.153Z,98920.50
2023-04-25T22:14:05.037Z,98920.63
2023-04-25T22:16:31.700Z,98930.06
2023-04-25T22:18:58.493Z,98926.72
2023-04-25T22:21:25.290Z,98929.34
2023-04-25T22:23:52.859Z,98932.16
2023-04-25T22:26:20.558Z,98940.13
2023-04-25T22:28:47.202Z,98939.94
2023-04-25T22:31:14.384Z,98940.13
2023-04-25T22:33:41.457Z,98936.66
2023-04-25T22:36:08.965Z,98946.22
2023-04-25T22:38:35.986Z,98941.75
2023-04-25T22:41:02.595Z,98947.94
2023-04-25T22:43:29.471Z,98947.84
2023-04-25T22:45:56.959Z,98941.81
2023-04-25T22:48:23.650Z,98953.56
2023-04-25T22:50:51.179Z,98956.13
2023-04-25T22:53:18.593Z,98950.19
2023-04-25T22:55:45.243Z,98958.84
2023-04-25T22:58:12.595Z,98959.75
2023-04-25T23:00:39.345Z,98964.09
2023-04-25T23:03:06.293Z,98963.25
2023-04-25T23:05:33.259Z,98961.09
2023-04-25T23:08:00.076Z,98959.50
2023-04-25T23:10:28.480Z,98956.22
2023-04-25T23:12:58.045Z,98963.53
2023-04-25T23:15:27.590Z,98965.69
2023-04-25T23:17:54.156Z,98964.00
2023-04-25T23:20:21.144Z,98958.88
2023-04-25T23:22:47.997Z,98967.84
2023-04-25T23:25:15.017Z,98962.69
2023-04-25T23:27:41.791Z,98971.41
2023-04-25T23:30:09.233Z,98961.94
2023-04-25T23:32:36.492Z,98964.59
2023-04-25T23:35:04.967Z,98973.31
2023-04-25T23:37:37.210Z,98987.38
2023-04-25T23:40:12.501Z,98981.56
2023-04-25T23:42:41.109Z,98977.41
2023-04-25T23:45:08.859Z,98982.09
2023-04-25T23:47:36.106Z,98984.94
2023-04-25T23:50:03.889Z,98986.88
2023-04-25T23:52:30.574Z,98989.88
2023-04-25T23:54:57.523Z,98990.91
2023-04-25T23:57:24.158Z,98993.72
2023-04-25T23:59:50.943Z,98987.69
